Latest Weather Observations for Charlton

IDV60801

Issued at 10:02 pm EST Saturday 5 September 2015 (issued every 30 minutes, with the page automatically refreshed every 10 minutes)

About weather observations | Map of weather stations | Latest weather observations for VIC | Other Formats
Station Details ID: 080128 Name: CHARLTON Lat: -36.28 Lon: 143.33 Height: 131.7 m
Data from the previous 72 hours. | See also: Recent months at Charlton
Date/Time
EST
Temp
°C
App
Temp
°C
Dew
Point
Rel
Hum
%
Delta-T
°C
Wind Press
QNH
hPa
Press
MSL
hPa
Rain
since 9 am
mm
Dir
 
Spd
km/h
Gust
km/h
Spd
kts
Gust
kts
05/10:00pm 6.0 5.0 5.7 98 0.1 CALM 0 0 0 0 1022.7 1022.8 0.0
05/09:30pm 6.2 5.1 5.3 94 0.4 CALM 0 0 0 0 1022.6 1022.7 0.0
05/09:00pm 7.3 6.0 6.1 92 0.5 NW 2 6 1 3 1022.4 1022.5 0.0
05/08:30pm 7.7 6.9 6.5 92 0.6 CALM 0 0 0 0 1022.2 1022.3 0.0
05/08:00pm 8.2 7.4 6.3 88 0.9 CALM 0 0 0 0 1022.0 1022.1 0.0
05/07:30pm 9.4 7.5 6.8 84 1.2 NW 6 6 3 3 1022.1 1022.2 0.0
05/07:00pm 9.9 9.1 6.6 80 1.5 CALM 0 0 0 0 1021.8 1021.8 0.0
05/06:30pm 10.8 10.0 6.6 75 2.0 CALM 0 0 0 0 1021.3 1021.3 0.0
05/06:00pm 12.0 11.2 6.5 69 2.6 CALM 0 0 0 0 1021.5 1021.5 0.0
05/05:30pm 13.5 12.8 6.8 64 3.3 CALM 0 0 0 0 1021.2 1021.2 0.0
05/05:00pm 13.8 12.6 6.4 61 3.6 S 2 7 1 4 1021.2 1021.2 0.0
05/04:30pm 14.7 12.4 5.8 55 4.3 SSE 7 11 4 6 1021.1 1021.1 0.0
05/04:00pm 15.3 13.3 6.3 55 4.4 SW 6 9 3 5 1021.4 1021.4 0.0
05/03:30pm 15.3 13.2 6.6 56 4.3 WSW 7 11 4 6 1021.8 1021.8 0.0
05/03:00pm 15.4 13.2 6.1 54 4.5 SW 7 11 4 6 1022.2 1022.3 0.0
05/02:30pm 14.8 12.2 5.9 55 4.3 SSE 9 13 5 7 1022.2 1022.3 0.0
05/02:00pm 14.3 11.9 5.1 54 4.3 SSW 7 11 4 6 1022.4 1022.5 0.0
05/01:30pm 14.0 11.8 6.4 60 3.7 S 7 13 4 7 1022.6 1022.7 0.0
05/01:00pm 13.2 10.6 6.3 63 3.3 SSE 9 13 5 7 1023.0 1023.1 0.0
05/12:30pm 12.9 10.3 6.3 64 3.2 SSW 9 13 5 7 1023.7 1023.8 0.0
05/12:00pm 12.1 9.4 5.5 64 3.1 SSW 9 15 5 8 1024.4 1024.5 0.0
05/11:30am 12.3 10.0 5.9 65 3.0 SSW 7 11 4 6 1024.7 1024.8 0.0
05/11:00am 11.3 8.7 6.0 70 2.5 SSW 9 17 5 9 1025.2 1025.3 0.0
05/10:30am 11.0 8.5 6.6 74 2.1 S 9 15 5 8 1025.3 1025.4 0.0
05/10:00am 10.5 7.5 6.1 74 2.0 SSE 11 20 6 11 1025.4 1025.5 0.0
05/09:30am 9.4 6.3 5.6 77 1.7 SSE 11 17 6 9 1025.5 1025.6 0.0
05/09:00am 8.7 6.7 7.0 89 0.8 S 7 11 4 6 1025.4 1025.5 0.0
05/08:30am 7.1 6.3 6.5 96 0.3 CALM 0 0 0 0 1025.3 1025.4 0.0
05/08:00am 4.3 2.3 4.2 99 0.0 S 4 6 2 3 1025.2 1025.3 0.0
05/07:30am 2.2 0.5 2.1 99 0.0 CALM 0 0 0 0 1025.2 1025.3 0.0
05/07:00am 0.2 -1.8 0.1 99 0.0 CALM 0 0 0 0 1024.9 1025.0 0.0
05/06:30am 0.5 -1.4 0.4 99 0.0 CALM 0 0 0 0 1024.7 1024.8 0.0
05/06:00am 0.4 -2.7 0.3 99 0.0 ESE 6 7 3 4 1024.4 1024.5 0.0
05/05:30am 0.7 -1.2 0.6 99 0.0 CALM 0 0 0 0 1024.1 1024.2 0.0
05/05:00am 1.8 0.1 1.7 99 0.0 CALM 0 0 0 0 1024.0 1024.1 0.0
05/04:30am 1.8 0.1 1.7 99 0.0 CALM 0 0 0 0 1023.8 1023.9 0.0
05/04:00am 2.2 -0.2 2.1 99 0.0 SSW 4 6 2 3 1023.6 1023.7 0.0
05/03:30am 2.2 -0.6 2.1 99 0.0 SW 6 7 3 4 1023.6 1023.7 0.0
05/03:00am 2.9 0.6 2.8 99 0.0 SW 4 7 2 4 1023.8 1023.9 0.0
05/02:30am 2.5 0.5 2.4 99 0.0 SSE 2 6 1 3 1024.1 1024.2 0.0
05/02:00am 3.2 1.7 3.1 99 0.0 CALM 0 0 0 0 1024.2 1024.3 0.0
05/01:30am 3.3 1.8 3.0 98 0.1 CALM 0 0 0 0 1024.4 1024.5 0.0
05/01:00am 3.6 2.1 3.2 97 0.2 CALM 0 0 0 0 1024.5 1024.6 0.0
05/12:30am 3.5 2.0 2.8 95 0.3 CALM 0 4 0 2 1024.7 1024.8 0.0
05/12:00am 3.6 1.4 3.2 97 0.2 SSE 4 7 2 4 1024.9 1025.0 0.0
 
Date/Time
EST
Temp
°C
App
Temp
°C
Dew
Point
Rel
Hum
%
Delta-T
°C
Wind Press
QNH
hPa
Press
MSL
hPa
Rain
since 9 am
mm
Dir
 
Spd
km/h
Gust
km/h
Spd
kts
Gust
kts
04/11:30pm 4.0 2.6 3.6 97 0.2 CALM 0 0 0 0 1025.2 1025.3 0.0
04/11:00pm 4.0 1.8 3.1 94 0.4 SSW 4 7 2 4 1025.3 1025.4 0.0
04/10:30pm 4.4 1.6 3.4 93 0.4 SSW 7 9 4 5 1025.2 1025.3 0.0
04/10:00pm 5.1 2.6 3.8 91 0.5 SSW 6 7 3 4 1025.2 1025.3 0.0
04/09:30pm 5.4 2.9 3.9 90 0.6 SSW 6 9 3 5 1025.0 1025.1 0.0
04/09:00pm 5.5 3.0 3.8 89 0.7 S 6 7 3 4 1025.0 1025.1 0.0
04/08:30pm 6.1 3.7 4.1 87 0.9 S 6 7 3 4 1024.9 1025.0 0.0
04/08:00pm 7.0 4.5 4.5 84 1.1 SSE 7 9 4 5 1024.8 1024.9 0.0
04/07:30pm 8.3 5.4 4.7 78 1.6 SSE 9 13 5 7 1024.6 1024.7 0.0
04/07:00pm 9.9 6.7 4.9 71 2.3 S 11 20 6 11 1024.5 1024.6 0.0
04/06:30pm 10.7 7.5 5.3 69 2.5 S 11 17 6 9 1024.3 1024.4 0.0
04/06:00pm 12.0 8.4 5.2 63 3.1 SSW 13 20 7 11 1024.0 1024.1 0.0
04/05:30pm 12.6 9.4 5.3 61 3.4 SSW 11 20 6 11 1023.8 1023.9 0.0
04/05:00pm 13.3 9.4 5.2 58 3.8 SSW 15 22 8 12 1023.5 1023.6 0.0
04/04:30pm 13.5 9.9 4.9 56 4.0 SW 13 24 7 13 1023.4 1023.5 0.0
04/04:00pm 14.4 10.0 5.0 53 4.4 SW 17 22 9 12 1023.3 1023.4 0.0
04/03:30pm 14.9 11.5 5.7 54 4.4 SW 13 22 7 12 1023.1 1023.2 0.0
04/03:00pm 14.7 11.4 4.7 51 4.7 SSW 11 20 6 11 1023.1 1023.2 0.0
04/02:30pm 14.2 11.2 5.8 57 4.0 SW 11 22 6 12 1023.3 1023.4 0.0
04/02:00pm 14.0 11.1 4.6 53 4.4 SSW 9 17 5 9 1023.7 1023.8 0.0
04/01:30pm 14.0 10.8 5.1 55 4.2 SSW 11 17 6 9 1024.1 1024.2 0.0
04/01:00pm 13.7 10.8 4.6 54 4.2 SSW 9 17 5 9 1024.5 1024.6 0.0
04/12:30pm 12.9 9.8 3.6 53 4.2 SW 9 15 5 8 1024.9 1025.0 0.0
04/12:00pm 13.0 9.7 4.4 56 3.9 S 11 19 6 10 1025.4 1025.5 0.0
04/11:30am 12.4 9.0 3.9 56 3.8 SW 11 20 6 11 1025.7 1025.8 0.0
04/11:00am 11.8 8.2 4.8 62 3.2 SSW 13 22 7 12 1026.1 1026.2 0.0
04/10:30am 11.0 7.3 4.2 63 3.1 SSW 13 20 7 11 1026.2 1026.3 0.0
04/10:00am 10.9 7.3 5.0 67 2.7 S 13 20 7 11 1026.5 1026.5 0.0
04/09:30am 9.7 7.1 6.1 78 1.7 SSW 9 15 5 8 1026.5 1026.5 0.0
04/09:00am 7.9 5.1 5.2 83 1.2 SSW 9 15 5 8 1026.5 1026.5 0.0
04/08:30am 6.0 3.0 4.2 88 0.8 SSW 9 17 5 9 1026.4 1026.4 0.0
04/08:00am 4.3 1.2 3.4 94 0.4 SW 9 13 5 7 1026.1 1026.2 0.0
04/07:30am 2.9 0.2 2.6 98 0.1 WSW 6 9 3 5 1025.7 1025.8 0.0
04/07:00am 2.4 -0.6 2.3 99 0.0 WSW 7 11 4 6 1025.3 1025.4 0.0
04/06:30am 2.0 -0.8 1.9 99 0.0 SW 6 9 3 5 1024.9 1025.0 0.0
04/06:00am 1.5 -1.6 1.4 99 0.0 SW 7 9 4 5 1024.8 1024.9 0.0
04/05:30am 1.6 -1.5 1.5 99 0.0 SSW 7 9 4 5 1024.4 1024.5 0.0
04/05:00am 2.0 -0.8 1.9 99 0.0 SSW 6 7 3 4 1024.2 1024.3 0.0
04/04:30am 2.2 -0.6 1.9 98 0.1 SSW 6 7 3 4 1023.9 1024.0 0.0
04/04:00am 3.0 1.1 2.9 99 0.0 SSW 2 6 1 3 1024.0 1024.1 0.0
04/03:30am 3.1 0.4 2.7 97 0.2 SSE 6 7 3 4 1023.9 1024.0 0.0
04/03:00am 3.2 0.4 2.3 94 0.4 S 6 9 3 5 1024.0 1024.1 0.0
04/02:30am 3.5 0.8 2.6 94 0.4 S 6 9 3 5 1024.0 1024.1 0.0
04/02:00am 4.6 1.9 3.6 93 0.4 SSW 7 11 4 6 1024.1 1024.2 0.0
04/01:30am 4.3 1.2 3.7 96 0.3 SSW 9 11 5 6 1024.1 1024.2 0.0
04/01:00am 4.4 1.7 3.8 96 0.3 S 7 11 4 6 1023.8 1023.9 0.0
04/12:30am 4.7 1.3 4.1 96 0.3 SSE 11 13 6 7 1023.6 1023.7 0.0
04/12:00am 5.4 3.0 4.5 94 0.4 SSE 6 9 3 5 1023.7 1023.8 0.0
 
Date/Time
EST
Temp
°C
App
Temp
°C
Dew
Point
Rel
Hum
%
Delta-T
°C
Wind Press
QNH
hPa
Press
MSL
hPa
Rain
since 9 am
mm
Dir
 
Spd
km/h
Gust
km/h
Spd
kts
Gust
kts
03/11:30pm 6.6 3.9 5.7 94 0.4 S 9 13 5 7 1023.4 1023.5 0.0
03/11:00pm 7.1 4.1 6.0 93 0.5 S 11 15 6 8 1023.1 1023.2 0.0
03/10:30pm 6.4 3.9 5.0 91 0.6 SSW 7 11 4 6 1022.9 1023.0 0.0
03/10:00pm 8.7 6.1 6.3 85 1.1 SSW 9 11 5 6 1022.7 1022.8 0.0
03/09:30pm 9.0 7.1 7.5 90 0.7 SSW 7 13 4 7 1022.4 1022.5 0.0
03/09:00pm 9.4 7.4 7.3 87 1.0 S 7 15 4 8 1022.0 1022.1 0.0
03/08:30pm 10.9 8.8 8.1 83 1.4 S 9 17 5 9 1021.5 1021.5 0.0
03/08:00pm 11.6 10.3 10.0 90 0.8 S 7 13 4 7 1021.2 1021.2 0.0
03/07:30pm 11.9 10.6 9.8 87 1.1 S 7 13 4 7 1020.8 1020.8 0.0
03/07:00pm 12.1 10.1 10.0 87 1.1 SSW 11 17 6 9 1020.7 1020.7 0.0
03/06:30pm 12.7 10.5 9.2 79 1.8 S 11 19 6 10 1020.2 1020.2 0.0
03/06:00pm 13.3 10.4 9.5 78 1.9 SSW 15 24 8 13 1019.5 1019.5 0.0
03/05:30pm 13.9 11.6 8.9 72 2.5 SSW 11 19 6 10 1018.9 1018.9 0.0
03/05:00pm 14.1 11.8 9.1 72 2.6 SSW 11 17 6 9 1018.2 1018.3 0.0
03/04:30pm 14.4 12.2 9.2 71 2.7 SSW 11 17 6 9 1017.8 1017.9 0.0
03/04:00pm 14.7 12.0 8.9 68 3.0 S 13 24 7 13 1017.6 1017.7 0.0
03/03:30pm 15.1 12.4 8.8 66 3.2 SSW 13 24 7 13 1017.1 1017.2 0.0
03/03:00pm 15.7 13.0 9.1 65 3.4 S 13 20 7 11 1016.6 1016.7 0.0
03/02:30pm 15.5 13.1 8.7 64 3.5 SSW 11 15 6 8 1016.1 1016.2 0.0
03/02:00pm 15.5 12.4 9.0 65 3.3 SSW 15 26 8 14 1015.9 1016.0 0.0
03/01:30pm 16.0 12.7 9.4 65 3.4 S 17 24 9 13 1015.6 1015.7 0.0
03/01:00pm 16.4 12.5 9.6 64 3.6 SSE 20 32 11 17 1015.6 1015.7 0.0
03/12:30pm 15.9 13.0 9.6 66 3.3 S 15 24 8 13 1015.5 1015.5 0.0
03/12:00pm 15.5 12.6 9.6 68 3.1 SSW 15 24 8 13 1015.5 1015.5 0.0
03/11:30am 16.2 12.9 9.4 64 3.5 S 17 28 9 15 1015.2 1015.2 0.0
03/11:00am 14.9 11.5 9.3 69 2.9 SSW 17 30 9 16 1015.1 1015.1 0.0
03/10:30am 15.3 11.6 9.4 68 3.1 S 19 30 10 16 1014.8 1014.8 0.0
03/10:00am 14.8 11.7 10.2 74 2.4 S 17 26 9 14 1014.3 1014.3 0.0
03/09:30am 13.7 10.4 9.6 76 2.1 S 17 28 9 15 1013.5 1013.5 0.0
03/09:00am 12.1 10.1 10.3 89 0.9 S 11 19 6 10 1013.1 1013.1 3.2
03/08:30am 11.6 10.0 11.4 99 0.1 S 11 17 6 9 1012.4 1012.4 3.2
03/08:00am 10.7 8.8 10.5 99 0.1 SSW 11 19 6 10 1011.8 1011.8 3.2
03/07:30am 10.6 8.7 10.6 100 0.0 SSE 11 17 6 9 1010.9 1010.9 3.2
03/07:00am 10.0 6.8 10.0 100 0.0 SSE 17 22 9 12 1010.0 1010.1 3.2
03/06:30am 9.7 7.6 9.7 100 0.0 SSE 11 17 6 9 1009.4 1009.5 3.2
03/06:00am 10.0 8.3 10.0 100 0.0 SSW 9 17 5 9 1008.7 1008.7 3.2
03/05:30am 10.1 8.1 10.1 100 0.0 S 11 17 6 9 1007.9 1007.9 3.2
03/05:00am 10.1 8.5 10.1 100 0.0 S 9 13 5 7 1007.4 1007.4 3.0
03/04:30am 9.8 8.1 9.8 100 0.0 S 9 15 5 8 1006.8 1006.8 3.0
03/04:00am 9.3 7.5 9.3 100 0.0 S 9 15 5 8 1006.5 1006.5 3.0
03/03:30am 9.5 7.7 9.5 100 0.0 SW 9 13 5 7 1006.3 1006.3 3.0
03/03:00am 9.3 7.8 9.3 100 0.0 SW 7 13 4 7 1006.1 1006.1 2.8
03/02:30am 9.1 7.8 9.1 100 0.0 WSW 6 9 3 5 1006.1 1006.1 2.8
03/02:00am 9.2 7.9 9.2 100 0.0 SW 6 7 3 4 1006.2 1006.2 2.8
03/01:30am 9.1 8.2 9.1 100 0.0 SSW 4 6 2 3 1006.1 1006.1 2.8
03/01:00am 8.6 7.1 8.6 100 0.0 SSW 6 7 3 4 1006.1 1006.1 2.8
03/12:30am 9.1 7.8 9.1 100 0.0 SSW 6 7 3 4 1006.0 1006.0 2.8
03/12:00am 9.4 8.2 9.4 100 0.0 S 6 7 3 4 1005.9 1005.9 2.8
 
Date/Time
EST
Temp
°C
App
Temp
°C
Dew
Point
Rel
Hum
%
Delta-T
°C
Wind Press
QNH
hPa
Press
MSL
hPa
Rain
since 9 am
mm
Dir
 
Spd
km/h
Gust
km/h
Spd
kts
Gust
kts
02/11:30pm 9.7 8.5 9.7 100 0.0 SSW 6 7 3 4 1006.0 1006.0 2.8
02/11:00pm 9.8 9.8 9.8 100 0.0 CALM 0 0 0 0 1006.1 1006.1 2.8
02/10:30pm 9.9 9.9 9.9 100 0.0 CALM 0 0 0 0 1006.0 1006.0 2.8

Other Formats:

Comma delimited format used in spreadsheet applications
http://www.bom.gov.au/fwo/IDV60801/IDV60801.94839.axf

JavaScript Object Notation format (JSON) in row-major order
http://www.bom.gov.au/fwo/IDV60801/IDV60801.94839.json